createdAt,value
2023-10-26T00:02:13.296Z,98877.09
2023-10-26T00:04:43.416Z,98875.88
2023-10-26T00:07:12.096Z,98865.75
2023-10-26T00:09:40.167Z,98856.00
2023-10-26T00:12:09.243Z,98852.09
2023-10-26T00:14:37.554Z,98855.56
2023-10-26T00:17:05.905Z,98853.91
2023-10-26T00:19:36.553Z,98848.53
2023-10-26T00:22:06.802Z,98848.91
2023-10-26T00:24:36.231Z,98853.47
2023-10-26T00:27:04.821Z,98848.47
2023-10-26T00:29:33.160Z,98852.84
2023-10-26T00:32:01.377Z,98838.75
2023-10-26T00:34:29.391Z,98833.78
2023-10-26T00:36:57.420Z,98830.28
2023-10-26T00:39:27.150Z,98828.41
2023-10-26T00:41:56.201Z,98826.81
2023-10-26T00:44:25.256Z,98831.53
2023-10-26T00:46:56.392Z,98824.91
2023-10-26T00:49:24.858Z,98828.78
2023-10-26T00:51:54.276Z,98832.66
2023-10-26T00:54:24.198Z,98836.84
2023-10-26T00:56:54.921Z,98828.53
2023-10-26T00:59:23.504Z,98822.53
2023-10-26T01:01:53.214Z,98825.47
2023-10-26T01:04:21.492Z,98830.03
2023-10-26T01:06:50.143Z,98835.22
2023-10-26T01:09:36.695Z,98827.34
2023-10-26T01:12:07.325Z,98826.06
2023-10-26T01:14:36.504Z,98818.66
2023-10-26T01:17:05.370Z,98825.22
2023-10-26T01:19:41.391Z,98821.47
2023-10-26T01:22:11.247Z,98817.16
2023-10-26T01:24:39.964Z,98810.56
2023-10-26T01:27:08.498Z,98807.25
2023-10-26T01:29:36.622Z,98807.66
2023-10-26T01:32:05.330Z,98803.28
2023-10-26T01:34:33.952Z,98808.03
2023-10-26T01:37:05.150Z,98802.06
2023-10-26T01:39:34.948Z,98796.28
2023-10-26T01:42:03.579Z,98801.44
2023-10-26T01:44:32.312Z,98797.47
2023-10-26T01:47:00.656Z,98803.72
2023-10-26T01:49:29.197Z,98801.16
2023-10-26T01:51:57.501Z,98796.03
2023-10-26T01:54:25.821Z,98799.28
2023-10-26T01:56:55.657Z,98801.75
2023-10-26T01:59:24.053Z,98798.69
2023-10-26T02:01:52.153Z,98800.16
2023-10-26T02:04:20.198Z,98793.28
2023-10-26T02:06:48.633Z,98791.69
2023-10-26T02:09:16.914Z,98782.97
2023-10-26T02:11:45.241Z,98793.16
2023-10-26T02:14:14.910Z,98793.13
2023-10-26T02:16:43.269Z,98787.91
2023-10-26T02:19:11.390Z,98791.22
2023-10-26T02:21:39.724Z,98791.16
2023-10-26T02:24:08.687Z,98786.41
2023-10-26T02:26:36.967Z,98782.50
2023-10-26T02:29:05.318Z,98771.56
2023-10-26T02:31:34.737Z,98778.78
2023-10-26T02:34:02.874Z,98776.28
2023-10-26T02:36:31.272Z,98775.22
2023-10-26T02:38:59.449Z,98780.81
2023-10-26T02:41:27.799Z,98785.22
2023-10-26T02:43:56.077Z,98783.78
2023-10-26T02:46:24.785Z,98786.28
2023-10-26T02:48:54.461Z,98783.38
2023-10-26T02:51:22.812Z,98782.97
2023-10-26T02:53:51.196Z,98784.22
2023-10-26T02:56:19.533Z,98777.38
2023-10-26T02:58:47.869Z,98786.25
2023-10-26T03:01:16.176Z,98777.16
2023-10-26T03:03:44.755Z,98772.44
2023-10-26T03:06:14.246Z,98778.44
2023-10-26T03:08:42.659Z,98781.53
2023-10-26T03:11:10.941Z,98782.72
2023-10-26T03:13:39.114Z,98786.63
2023-10-26T03:16:08.894Z,98778.97
2023-10-26T03:18:38.486Z,98784.31
2023-10-26T03:21:06.910Z,98788.28
2023-10-26T03:23:36.248Z,98780.22
2023-10-26T03:26:04.709Z,98786.59
2023-10-26T03:28:32.870Z,98789.28
2023-10-26T03:31:01.224Z,98787.84
2023-10-26T03:33:29.525Z,98788.88
2023-10-26T03:35:57.978Z,98791.78
2023-10-26T03:38:26.261Z,98792.63
2023-10-26T03:40:55.754Z,98796.34
2023-10-26T03:43:23.821Z,98789.53
2023-10-26T03:45:52.209Z,98791.16
2023-10-26T03:48:20.390Z,98793.66
2023-10-26T03:50:48.502Z,98798.22
2023-10-26T03:53:16.965Z,98787.47
2023-10-26T03:55:45.346Z,98785.22
2023-10-26T03:58:16.619Z,98783.72
2023-10-26T04:00:45.047Z,98791.78
2023-10-26T04:03:13.395Z,98777.69
2023-10-26T04:05:41.625Z,98780.16
2023-10-26T04:08:10.965Z,98781.03
2023-10-26T04:10:39.205Z,98777.28
2023-10-26T04:13:07.473Z,98781.03
2023-10-26T04:15:36.899Z,98774.16
2023-10-26T04:18:05.740Z,98769.81
2023-10-26T04:20:34.229Z,98781.63
2023-10-26T04:23:05.096Z,98774.41
2023-10-26T04:25:50.575Z,98775.44
2023-10-26T04:28:21.700Z,98774.75
2023-10-26T04:30:54.269Z,98775.59
2023-10-26T04:33:22.398Z,98772.09
2023-10-26T04:35:51.216Z,98776.25
2023-10-26T04:38:19.635Z,98775.59
2023-10-26T04:40:48.311Z,98782.47
2023-10-26T04:43:16.492Z,98775.44
2023-10-26T04:45:44.578Z,98771.31
2023-10-26T04:48:14.459Z,98776.03
2023-10-26T04:50:42.765Z,98780.78
2023-10-26T04:53:11.763Z,98778.94
2023-10-26T04:55:40.017Z,98767.97
2023-10-26T04:58:09.189Z,98773.28
2023-10-26T05:00:37.719Z,98780.78
2023-10-26T05:03:05.890Z,98770.56
2023-10-26T05:05:36.028Z,98777.44
2023-10-26T05:08:05.098Z,98779.34
2023-10-26T05:10:33.430Z,98781.84
2023-10-26T05:13:01.660Z,98783.09
2023-10-26T05:15:29.922Z,98781.84
2023-10-26T05:17:58.048Z,98779.19
2023-10-26T05:20:26.563Z,98787.00
2023-10-26T05:22:56.312Z,98788.72
2023-10-26T05:25:24.363Z,98788.47
2023-10-26T05:27:54.477Z,98794.03
2023-10-26T05:30:23.355Z,98787.44
2023-10-26T05:32:51.427Z,98798.84
2023-10-26T05:35:20.228Z,98802.72
2023-10-26T05:37:48.249Z,98805.63
2023-10-26T05:40:18.081Z,98810.75
2023-10-26T05:42:46.473Z,98816.59
2023-10-26T05:45:14.765Z,98820.91
2023-10-26T05:47:46.711Z,98828.16
2023-10-26T05:50:15.133Z,98822.41
2023-10-26T05:52:43.385Z,98817.44
2023-10-26T05:55:11.412Z,98805.44
2023-10-26T05:57:40.869Z,98806.50
2023-10-26T06:00:10.998Z,98801.34
2023-10-26T06:02:39.179Z,98809.22
2023-10-26T06:05:07.944Z,98822.28
2023-10-26T06:07:36.384Z,98829.09
2023-10-26T06:10:07.024Z,98825.56
2023-10-26T06:12:35.416Z,98847.88
2023-10-26T06:15:05.595Z,98843.34
2023-10-26T06:17:33.771Z,98850.78
2023-10-26T06:20:02.115Z,98848.22
2023-10-26T06:22:30.387Z,98850.03
2023-10-26T06:24:58.661Z,98871.59
2023-10-26T06:27:26.761Z,98866.22
2023-10-26T06:29:55.071Z,98860.41
2023-10-26T06:32:24.806Z,98857.34
2023-10-26T06:34:53.325Z,98854.09
2023-10-26T06:37:21.691Z,98858.00
2023-10-26T06:39:49.849Z,98852.28
2023-10-26T06:42:17.966Z,98852.44
2023-10-26T06:44:46.365Z,98852.66
2023-10-26T06:47:15.395Z,98860.72
2023-10-26T06:49:45.226Z,98870.25
2023-10-26T06:52:12.538Z,98875.53
2023-10-26T06:54:40.957Z,98868.53
2023-10-26T06:57:09.036Z,98850.19
2023-10-26T06:59:37.038Z,98858.47
2023-10-26T07:02:10.207Z,98862.63
2023-10-26T07:04:41.157Z,98859.25
2023-10-26T07:07:10.627Z,98853.72
2023-10-26T07:09:39.214Z,98848.94
2023-10-26T07:12:08.699Z,98854.13
2023-10-26T07:14:38.082Z,98845.00
2023-10-26T07:17:06.485Z,98867.00
2023-10-26T07:19:34.794Z,98873.56
2023-10-26T07:22:03.940Z,98879.81
2023-10-26T07:24:35.374Z,98880.41
2023-10-26T07:27:04.405Z,98889.75
2023-10-26T07:29:32.641Z,98888.53
2023-10-26T07:32:01.569Z,98885.00
2023-10-26T07:34:29.907Z,98879.25
2023-10-26T07:36:58.588Z,98875.78
2023-10-26T07:42:16.675Z,98856.16
2023-10-26T07:44:46.249Z,98866.31
2023-10-26T07:47:14.914Z,98873.94
2023-10-26T07:49:43.598Z,98871.22
2023-10-26T07:52:12.304Z,98879.53
2023-10-26T07:54:40.580Z,98888.03
2023-10-26T07:57:09.053Z,98884.72
2023-10-26T07:59:38.537Z,98885.34
2023-10-26T08:02:06.922Z,98898.22
2023-10-26T08:04:35.456Z,98902.78
2023-10-26T08:07:04.000Z,98896.34
2023-10-26T08:09:34.041Z,98909.78
2023-10-26T08:12:02.469Z,98912.28
2023-10-26T08:16:04.410Z,98916.81
2023-10-26T08:17:22.041Z,98913.72
2023-10-26T08:19:53.198Z,98902.78
2023-10-26T08:22:22.061Z,98900.72
2023-10-26T08:24:50.437Z,98900.72
2023-10-26T08:27:19.340Z,98908.59
2023-10-26T08:29:47.678Z,98911.94
2023-10-26T08:32:16.486Z,98916.03
2023-10-26T08:34:47.443Z,98914.59
2023-10-26T08:37:16.072Z,98926.78
2023-10-26T08:39:44.665Z,98921.41
2023-10-26T08:42:14.481Z,98923.13
2023-10-26T08:44:44.872Z,98919.38
2023-10-26T08:47:15.996Z,98914.63
2023-10-26T08:49:55.955Z,98910.50
2023-10-26T08:52:28.946Z,98915.66
2023-10-26T08:54:57.461Z,98910.06
2023-10-26T08:57:25.748Z,98914.81
2023-10-26T08:59:54.107Z,98908.88
2023-10-26T09:02:22.203Z,98913.41
2023-10-26T09:05:05.242Z,98908.25
2023-10-26T09:07:33.787Z,98914.09
2023-10-26T09:10:02.133Z,98910.97
2023-10-26T09:12:30.481Z,98922.41
2023-10-26T09:15:02.467Z,98916.59
2023-10-26T09:17:31.837Z,98930.28
2023-10-26T09:20:00.431Z,98933.38
2023-10-26T09:22:40.227Z,98926.38
2023-10-26T09:25:09.421Z,98921.97
2023-10-26T09:27:37.961Z,98922.03
2023-10-26T09:30:08.005Z,98936.09
2023-10-26T09:32:38.175Z,98935.72
2023-10-26T09:35:07.157Z,98931.38
2023-10-26T09:37:51.826Z,98935.09
2023-10-26T09:40:21.298Z,98932.66
2023-10-26T09:42:49.900Z,98932.03
2023-10-26T09:45:20.226Z,98938.22
2023-10-26T09:47:48.856Z,98928.72
2023-10-26T09:50:17.355Z,98927.50
2023-10-26T09:52:46.044Z,98929.34
2023-10-26T09:55:16.008Z,98912.38
2023-10-26T09:57:50.933Z,98922.31
2023-10-26T10:00:21.043Z,98924.41
2023-10-26T10:03:10.977Z,98922.75
2023-10-26T10:05:39.590Z,98919.88
2023-10-26T10:08:08.247Z,98913.84
2023-10-26T10:10:38.359Z,98914.25
2023-10-26T10:13:06.915Z,98919.03
2023-10-26T10:15:42.489Z,98910.72
2023-10-26T10:18:11.513Z,98905.13
2023-10-26T10:20:42.606Z,98912.81
2023-10-26T10:23:29.026Z,98906.59
2023-10-26T10:26:23.537Z,98905.13
2023-10-26T10:28:54.537Z,98904.53
2023-10-26T10:31:25.117Z,98901.44
2023-10-26T10:34:04.580Z,98895.00
2023-10-26T10:37:10.290Z,98896.44
2023-10-26T10:39:39.267Z,98893.56
2023-10-26T10:42:13.147Z,98893.75
2023-10-26T10:44:43.549Z,98893.94
2023-10-26T10:47:12.112Z,98897.88
2023-10-26T10:49:40.361Z,98887.75
2023-10-26T10:52:14.874Z,98889.38
2023-10-26T10:54:59.728Z,98877.59
2023-10-26T10:57:34.291Z,98882.97
2023-10-26T11:00:02.490Z,98882.97
2023-10-26T11:02:30.812Z,98891.06
2023-10-26T11:05:12.580Z,98889.19
2023-10-26T11:07:44.910Z,98884.63
2023-10-26T11:10:13.241Z,98875.53
2023-10-26T11:12:51.404Z,98875.09
2023-10-26T11:15:19.998Z,98882.75
2023-10-26T11:17:49.431Z,98882.34
2023-10-26T11:20:35.894Z,98879.84
2023-10-26T11:23:04.263Z,98872.19
2023-10-26T11:25:32.396Z,98868.66
2023-10-26T11:28:01.956Z,98874.88
2023-10-26T11:30:31.613Z,98867.03
2023-10-26T11:33:00.129Z,98866.81
2023-10-26T11:35:28.473Z,98868.25
2023-10-26T11:37:57.742Z,98869.28
2023-10-26T11:40:33.276Z,98862.84
2023-10-26T11:43:04.565Z,98862.84
2023-10-26T11:45:49.114Z,98858.28
2023-10-26T11:48:28.152Z,98867.22
2023-10-26T11:50:56.607Z,98861.84
2023-10-26T11:53:27.388Z,98861.63
2023-10-26T11:55:55.582Z,98859.97
2023-10-26T11:58:25.480Z,98858.09
2023-10-26T12:00:53.651Z,98866.16
2023-10-26T12:03:22.547Z,98868.06
2023-10-26T12:05:51.050Z,98860.78
2023-10-26T12:08:19.409Z,98861.63
2023-10-26T12:10:47.798Z,98868.25
2023-10-26T12:13:16.189Z,98875.72
2023-10-26T12:15:45.833Z,98875.94
2023-10-26T12:18:14.162Z,98879.44
2023-10-26T12:20:42.534Z,98885.44
2023-10-26T12:23:10.856Z,98888.78
2023-10-26T12:25:39.457Z,98888.56
2023-10-26T12:28:19.151Z,98888.16
2023-10-26T12:30:52.678Z,98882.34
2023-10-26T12:33:21.914Z,98875.69
2023-10-26T12:35:51.748Z,98881.75
2023-10-26T12:38:20.900Z,98871.38
2023-10-26T12:40:49.675Z,98873.25
2023-10-26T12:43:17.964Z,98871.16
2023-10-26T12:45:46.359Z,98861.22
2023-10-26T12:48:16.039Z,98862.06
2023-10-26T12:50:44.440Z,98866.81
2023-10-26T12:53:13.569Z,98863.91
2023-10-26T12:55:41.859Z,98871.78
2023-10-26T12:58:10.252Z,98861.00
2023-10-26T13:00:38.484Z,98866.38
2023-10-26T13:03:06.892Z,98862.88
2023-10-26T13:05:36.334Z,98865.16
2023-10-26T13:08:05.131Z,98857.91
2023-10-26T13:10:33.761Z,98857.91
2023-10-26T13:13:02.157Z,98871.56
2023-10-26T13:15:31.204Z,98858.50
2023-10-26T13:18:07.128Z,98869.69
2023-10-26T13:20:37.263Z,98870.09
2023-10-26T13:23:05.306Z,98863.88
2023-10-26T13:25:33.662Z,98863.69
2023-10-26T13:28:02.516Z,98860.16
2023-10-26T13:30:30.792Z,98859.31
2023-10-26T13:32:59.259Z,98866.38
2023-10-26T13:35:30.978Z,98853.34
2023-10-26T13:38:00.612Z,98853.34
2023-10-26T13:40:29.568Z,98854.34
2023-10-26T13:42:57.817Z,98859.53
2023-10-26T13:45:26.010Z,98866.19
2023-10-26T13:47:54.532Z,98870.75
2023-10-26T13:50:23.054Z,98866.41
2023-10-26T13:52:51.333Z,98870.31
2023-10-26T13:55:20.796Z,98869.91
2023-10-26T13:57:49.224Z,98861.81
2023-10-26T14:00:18.273Z,98852.72
2023-10-26T14:02:46.599Z,98850.81
2023-10-26T14:05:30.234Z,98843.16
2023-10-26T14:07:59.666Z,98837.56
2023-10-26T14:10:29.852Z,98853.72
2023-10-26T14:12:58.310Z,98856.44
2023-10-26T14:15:26.649Z,98854.56
2023-10-26T14:17:56.338Z,98853.72
2023-10-26T14:20:24.489Z,98855.41
2023-10-26T14:22:52.477Z,98849.59
2023-10-26T14:25:20.822Z,98858.72
2023-10-26T14:27:51.518Z,98850.63
2023-10-26T14:30:20.021Z,98842.75
2023-10-26T14:32:48.381Z,98844.44
2023-10-26T14:35:16.756Z,98847.31
2023-10-26T14:37:50.443Z,98848.34
2023-10-26T14:40:19.429Z,98852.69
2023-10-26T14:42:50.377Z,98850.84
2023-10-26T14:45:18.714Z,98843.81
2023-10-26T14:47:47.501Z,98851.91
2023-10-26T14:50:15.748Z,98843.19
2023-10-26T14:52:43.930Z,98846.91
2023-10-26T14:55:12.489Z,98839.66
2023-10-26T14:57:40.945Z,98836.94
2023-10-26T15:00:11.732Z,98834.03
2023-10-26T15:02:40.382Z,98837.56
2023-10-26T15:05:10.284Z,98839.44
2023-10-26T15:07:38.505Z,98840.91
2023-10-26T15:10:24.062Z,98850.22
2023-10-26T15:12:55.258Z,98852.91
2023-10-26T15:15:25.570Z,98861.00
2023-10-26T15:17:54.350Z,98858.31
2023-10-26T15:20:22.736Z,98855.38
2023-10-26T15:22:51.101Z,98852.28
2023-10-26T15:25:19.280Z,98856.88
2023-10-26T15:27:47.857Z,98861.22
2023-10-26T15:30:16.364Z,98854.97
2023-10-26T15:32:46.153Z,98861.44
2023-10-26T15:35:14.477Z,98857.88
2023-10-26T15:37:42.580Z,98856.03
2023-10-26T15:40:13.914Z,98856.66
2023-10-26T15:42:42.469Z,98864.13
2023-10-26T15:45:12.745Z,98871.16
2023-10-26T15:47:41.239Z,98869.31
2023-10-26T15:50:12.280Z,98869.50
2023-10-26T15:52:40.722Z,98869.72
2023-10-26T15:55:09.941Z,98864.75
2023-10-26T15:57:38.933Z,98868.69
2023-10-26T16:00:10.842Z,98866.41
2023-10-26T16:02:39.890Z,98867.03
2023-10-26T16:05:08.703Z,98867.47
2023-10-26T16:07:38.286Z,98867.88
2023-10-26T16:10:07.411Z,98869.09
2023-10-26T16:12:35.619Z,98863.91
2023-10-26T16:15:04.166Z,98858.94
2023-10-26T16:17:33.774Z,98864.94
2023-10-26T16:20:02.480Z,98861.00
2023-10-26T16:22:31.481Z,98857.25
2023-10-26T16:25:01.800Z,98864.31
2023-10-26T16:27:30.584Z,98865.13
2023-10-26T16:29:59.553Z,98864.94
2023-10-26T16:32:28.840Z,98859.75
2023-10-26T16:34:57.720Z,98867.41
2023-10-26T16:37:26.107Z,98853.53
2023-10-26T16:39:55.480Z,98867.44
2023-10-26T16:42:25.514Z,98864.72
2023-10-26T16:44:54.624Z,98860.16
2023-10-26T16:47:23.811Z,98862.44
2023-10-26T16:49:53.260Z,98853.94
2023-10-26T16:52:22.457Z,98851.47
2023-10-26T16:54:51.404Z,98850.44
2023-10-26T16:57:21.208Z,98844.41
2023-10-26T16:59:51.194Z,98841.31
2023-10-26T17:02:20.122Z,98831.56
2023-10-26T17:04:52.594Z,98833.22
2023-10-26T17:07:22.255Z,98823.50
2023-10-26T17:09:51.953Z,98828.66
2023-10-26T17:12:23.453Z,98824.13
2023-10-26T17:14:56.770Z,98820.78
2023-10-26T17:17:26.432Z,98813.13
2023-10-26T17:19:57.311Z,98817.88
2023-10-26T17:22:26.270Z,98808.16
2023-10-26T17:24:56.180Z,98820.56
2023-10-26T17:27:27.384Z,98817.28
2023-10-26T17:29:59.177Z,98802.34
2023-10-26T17:32:29.176Z,98806.88
2023-10-26T17:34:58.887Z,98808.78
2023-10-26T17:37:28.231Z,98793.19
2023-10-26T17:39:57.601Z,98796.72
2023-10-26T17:42:28.306Z,98793.81
2023-10-26T17:44:59.824Z,98798.41
2023-10-26T17:47:29.663Z,98788.22
2023-10-26T17:50:00.951Z,98798.78
2023-10-26T17:52:31.622Z,98793.63
2023-10-26T17:55:03.459Z,98797.16
2023-10-26T17:57:32.665Z,98791.13
2023-10-26T18:00:04.384Z,98795.88
2023-10-26T18:02:36.194Z,98795.88
2023-10-26T18:05:07.011Z,98785.09
2023-10-26T18:07:38.445Z,98772.44
2023-10-26T18:10:09.229Z,98769.34
2023-10-26T18:12:39.330Z,98766.25
2023-10-26T18:15:13.321Z,98768.34
2023-10-26T18:17:42.577Z,98774.75
2023-10-26T18:20:15.008Z,98781.19
2023-10-26T18:22:46.780Z,98790.31
2023-10-26T18:25:17.280Z,98787.22
2023-10-26T18:27:46.873Z,98787.00
2023-10-26T18:30:19.450Z,98794.88
2023-10-26T18:32:50.139Z,98793.19
2023-10-26T18:35:20.356Z,98798.19
2023-10-26T18:37:50.511Z,98798.41
2023-10-26T18:40:21.297Z,98788.84
2023-10-26T18:42:50.747Z,98791.75
2023-10-26T18:45:22.176Z,98809.56
2023-10-26T18:47:53.618Z,98822.84
2023-10-26T18:50:23.777Z,98833.84
2023-10-26T18:52:54.108Z,98814.75
2023-10-26T18:55:26.627Z,98825.78
2023-10-26T18:57:57.813Z,98814.97
2023-10-26T19:00:30.500Z,98817.47
2023-10-26T19:03:03.179Z,98805.88
2023-10-26T19:05:32.277Z,98792.00
2023-10-26T19:08:02.983Z,98783.31
2023-10-26T19:10:35.046Z,98790.75
2023-10-26T19:13:05.494Z,98799.03
2023-10-26T19:15:38.512Z,98803.16
2023-10-26T19:18:08.256Z,98796.94
2023-10-26T19:20:39.828Z,98789.09
2023-10-26T19:23:10.456Z,98796.34
2023-10-26T19:25:42.865Z,98802.97
2023-10-26T19:28:13.499Z,98801.94
2023-10-26T19:30:45.593Z,98801.72
2023-10-26T19:33:18.532Z,98786.00
2023-10-26T19:35:49.303Z,98793.22
2023-10-26T19:38:19.343Z,98790.53
2023-10-26T19:40:49.165Z,98778.72
2023-10-26T19:43:19.309Z,98786.78
2023-10-26T19:45:54.710Z,98786.38
2023-10-26T19:48:24.438Z,98782.47
2023-10-26T19:50:54.213Z,98772.53
2023-10-26T19:53:24.731Z,98761.13
2023-10-26T19:55:54.909Z,98757.81
2023-10-26T19:58:25.454Z,98754.09
2023-10-26T20:00:57.956Z,98754.94
2023-10-26T20:03:28.223Z,98758.03
2023-10-26T20:05:58.869Z,98751.16
2023-10-26T20:08:28.950Z,98747.66
2023-10-26T20:10:59.505Z,98746.22
2023-10-26T20:13:30.926Z,98750.34
2023-10-26T20:16:02.619Z,98751.78
2023-10-26T20:18:40.954Z,98754.69
2023-10-26T20:21:12.576Z,98752.19
2023-10-26T20:23:42.147Z,98750.34
2023-10-26T20:26:12.398Z,98748.28
2023-10-26T20:28:41.887Z,98738.13
2023-10-26T20:31:12.586Z,98725.69
2023-10-26T20:33:43.089Z,98735.03
2023-10-26T20:36:13.122Z,98739.16
2023-10-26T20:38:42.433Z,98740.59
2023-10-26T20:41:10.908Z,98728.75
2023-10-26T20:43:39.821Z,98737.50
2023-10-26T20:46:09.114Z,98735.84
2023-10-26T20:48:42.715Z,98718.44
2023-10-26T20:51:12.425Z,98719.91
2023-10-26T20:53:41.240Z,98728.75
2023-10-26T20:56:10.359Z,98716.97
2023-10-26T20:58:38.757Z,98706.81
2023-10-26T21:01:11.388Z,98702.06
2023-10-26T21:03:41.918Z,98700.84
2023-10-26T21:06:13.573Z,98710.56
2023-10-26T21:08:43.994Z,98701.00
2023-10-26T21:11:16.251Z,98694.19
2023-10-26T21:13:44.451Z,98699.56
2023-10-26T21:16:12.963Z,98692.72
2023-10-26T21:18:42.984Z,98689.63
2023-10-26T21:21:11.881Z,98690.25
2023-10-26T21:23:40.260Z,98688.56
2023-10-26T21:26:09.294Z,98678.66
2023-10-26T21:28:39.956Z,98672.03
2023-10-26T21:31:08.343Z,98672.84
2023-10-26T21:33:36.886Z,98675.13
2023-10-26T21:36:12.326Z,98673.06
2023-10-26T21:38:40.683Z,98672.22
2023-10-26T21:41:09.498Z,98675.50
2023-10-26T21:43:37.823Z,98681.72
2023-10-26T21:46:07.512Z,98683.41
2023-10-26T21:48:36.300Z,98688.56
2023-10-26T21:51:09.810Z,98694.78
2023-10-26T21:53:39.697Z,98681.94
2023-10-26T21:56:08.642Z,98690.63
2023-10-26T21:58:36.925Z,98699.13
2023-10-26T22:01:08.247Z,98698.06
2023-10-26T22:03:36.676Z,98697.25
2023-10-26T22:06:05.056Z,98693.75
2023-10-26T22:08:34.564Z,98698.50
2023-10-26T22:11:02.885Z,98699.75
2023-10-26T22:13:31.461Z,98690.63
2023-10-26T22:15:59.978Z,98697.22
2023-10-26T22:18:36.069Z,98695.59
2023-10-26T22:21:04.393Z,98706.16
2023-10-26T22:23:34.147Z,98705.56
2023-10-26T22:26:02.765Z,98705.13
2023-10-26T22:28:31.782Z,98710.09
2023-10-26T22:31:01.704Z,98700.78
2023-10-26T22:33:36.252Z,98694.16
2023-10-26T22:36:05.124Z,98691.69
2023-10-26T22:38:34.647Z,98708.47
2023-10-26T22:41:04.754Z,98705.13
2023-10-26T22:43:33.018Z,98704.72
2023-10-26T22:46:01.319Z,98708.66
2023-10-26T22:48:29.794Z,98712.41
2023-10-26T22:50:59.498Z,98704.13
2023-10-26T22:53:27.984Z,98708.44
2023-10-26T22:55:57.618Z,98699.13
2023-10-26T22:58:26.188Z,98699.34
2023-10-26T23:00:54.582Z,98692.94
2023-10-26T23:03:23.375Z,98685.25
2023-10-26T23:05:59.089Z,98685.88
2023-10-26T23:08:28.220Z,98685.88
2023-10-26T23:10:57.661Z,98674.91
2023-10-26T23:13:26.011Z,98687.16
2023-10-26T23:15:54.471Z,98683.41
2023-10-26T23:18:22.885Z,98678.25
2023-10-26T23:20:51.292Z,98687.34
2023-10-26T23:23:19.608Z,98678.03
2023-10-26T23:25:48.027Z,98684.03
2023-10-26T23:28:17.863Z,98691.09
2023-10-26T23:30:46.347Z,98687.78
2023-10-26T23:33:15.079Z,98686.31
2023-10-26T23:35:43.345Z,98682.78
2023-10-26T23:38:11.332Z,98671.59
2023-10-26T23:40:39.651Z,98676.59
2023-10-26T23:43:07.744Z,98676.38
2023-10-26T23:45:37.165Z,98679.25
2023-10-26T23:48:05.903Z,98675.75
2023-10-26T23:50:34.308Z,98668.31
2023-10-26T23:53:02.576Z,98662.09
2023-10-26T23:55:30.943Z,98669.38
2023-10-26T23:57:59.027Z,98659.19
